createdAt,value
2023-04-23T00:02:16.835Z,50.07
2023-04-23T00:04:50.808Z,49.48
2023-04-23T00:07:20.062Z,49.21
2023-04-23T00:09:47.043Z,48.45
2023-04-23T00:12:14.454Z,46.93
2023-04-23T00:14:41.673Z,47.06
2023-04-23T00:17:08.879Z,47.85
2023-04-23T00:19:35.966Z,49.30
2023-04-23T00:22:03.264Z,49.00
2023-04-23T00:24:32.112Z,48.74
2023-04-23T00:26:58.993Z,49.05
2023-04-23T00:29:25.857Z,48.66
2023-04-23T00:31:52.773Z,50.06
2023-04-23T00:34:19.680Z,49.26
2023-04-23T00:36:46.554Z,48.85
2023-04-23T00:39:13.495Z,48.25
2023-04-23T00:41:41.814Z,50.39
2023-04-23T00:44:13.284Z,50.98
2023-04-23T00:46:40.252Z,52.07
2023-04-23T00:49:07.156Z,52.58
2023-04-23T00:51:34.032Z,53.99
2023-04-23T00:54:00.912Z,52.63
2023-04-23T00:56:28.538Z,53.05
2023-04-23T00:58:56.212Z,51.29
2023-04-23T01:01:23.739Z,50.03
2023-04-23T01:03:53.350Z,48.93
2023-04-23T01:06:20.542Z,49.34
2023-04-23T01:08:47.994Z,50.59
2023-04-23T01:11:15.714Z,50.24
2023-04-23T01:13:43.718Z,49.85
2023-04-23T01:16:11.149Z,49.28
2023-04-23T01:18:38.107Z,49.80
2023-04-23T01:21:05.684Z,48.98
2023-04-23T01:23:32.601Z,45.70
2023-04-23T01:25:59.649Z,46.30
2023-04-23T01:28:26.633Z,48.56
2023-04-23T01:30:53.851Z,49.52
2023-04-23T01:33:21.064Z,48.73
2023-04-23T01:35:49.516Z,49.11
2023-04-23T01:38:17.656Z,49.77
2023-04-23T01:40:44.521Z,49.96
2023-04-23T01:43:11.480Z,53.33
2023-04-23T01:45:38.419Z,54.34
2023-04-23T01:48:05.381Z,62.46
2023-04-23T01:50:32.224Z,53.19
2023-04-23T01:52:59.096Z,52.04
2023-04-23T01:55:26.365Z,51.96
2023-04-23T01:57:53.283Z,48.77
2023-04-23T02:00:20.907Z,50.46
2023-04-23T02:02:48.358Z,51.28
2023-04-23T02:05:18.783Z,59.45
2023-04-23T02:07:47.405Z,53.94
2023-04-23T02:10:14.611Z,54.56
2023-04-23T02:12:41.904Z,52.73
2023-04-23T02:15:10.007Z,49.42
2023-04-23T02:17:37.112Z,50.70
2023-04-23T02:20:04.495Z,50.11
2023-04-23T02:22:31.748Z,51.48
2023-04-23T02:25:00.072Z,50.86
2023-04-23T02:27:27.451Z,51.08
2023-04-23T02:29:54.566Z,51.44
2023-04-23T02:32:21.442Z,51.24
2023-04-23T02:34:48.335Z,49.82
2023-04-23T02:37:15.197Z,50.49
2023-04-23T02:39:42.136Z,50.35
2023-04-23T02:42:09.074Z,51.24
2023-04-23T02:44:36.253Z,48.45
2023-04-23T02:47:03.313Z,47.50
2023-04-23T02:49:30.761Z,48.82
2023-04-23T02:51:57.676Z,50.03
2023-04-23T02:54:24.531Z,49.28
2023-04-23T02:56:51.675Z,47.58
2023-04-23T02:59:18.543Z,49.77
2023-04-23T03:01:45.416Z,47.78
2023-04-23T03:04:12.746Z,49.65
2023-04-23T03:06:39.688Z,52.23
2023-04-23T03:09:06.805Z,52.28
2023-04-23T03:11:34.112Z,52.44
2023-04-23T03:14:01.232Z,55.12
2023-04-23T03:16:29.432Z,53.63
2023-04-23T03:18:56.498Z,54.86
2023-04-23T03:21:23.359Z,54.93
2023-04-23T03:23:50.232Z,51.18
2023-04-23T03:26:17.097Z,51.74
2023-04-23T03:28:43.961Z,49.39
2023-04-23T03:31:11.044Z,50.58
2023-04-23T03:33:37.993Z,52.13
2023-04-23T03:36:05.790Z,52.10
2023-04-23T03:38:32.694Z,49.62
2023-04-23T03:40:59.611Z,53.66
2023-04-23T03:43:26.519Z,52.18
2023-04-23T03:45:53.436Z,51.67
2023-04-23T03:48:21.758Z,51.51
2023-04-23T03:50:48.743Z,52.37
2023-04-23T03:53:17.803Z,51.99
2023-04-23T03:55:44.946Z,50.78
2023-04-23T03:58:12.019Z,49.49
2023-04-23T04:00:38.881Z,49.24
2023-04-23T04:03:05.972Z,49.82
2023-04-23T04:05:33.052Z,50.78
2023-04-23T04:07:59.925Z,49.76
2023-04-23T04:10:26.968Z,49.76
2023-04-23T04:12:55.372Z,50.66
2023-04-23T04:15:22.369Z,51.28
2023-04-23T04:17:49.328Z,50.95
2023-04-23T04:20:16.223Z,49.84
2023-04-23T04:22:43.108Z,49.16
2023-04-23T04:25:10.134Z,48.74
2023-04-23T04:27:37.803Z,46.62
2023-04-23T04:30:05.746Z,45.75
2023-04-23T04:32:33.023Z,44.90
2023-04-23T04:34:59.951Z,44.48
2023-04-23T04:37:28.196Z,44.89
2023-04-23T04:39:55.375Z,43.82
2023-04-23T04:42:22.273Z,43.01
2023-04-23T04:44:49.148Z,44.90
2023-04-23T04:47:16.529Z,45.49
2023-04-23T04:49:43.416Z,45.28
2023-04-23T04:52:10.492Z,46.12
2023-04-23T04:54:37.432Z,45.65
2023-04-23T04:57:04.371Z,46.75
2023-04-23T04:59:31.321Z,45.28
2023-04-23T05:01:58.238Z,42.43
2023-04-23T05:04:25.302Z,39.96
2023-04-23T05:06:52.261Z,39.19
2023-04-23T05:09:19.105Z,38.20
2023-04-23T05:11:45.988Z,37.02
2023-04-23T05:14:12.901Z,35.04
2023-04-23T05:16:39.751Z,34.04
2023-04-23T05:19:06.684Z,33.54
2023-04-23T05:21:33.615Z,32.97
2023-04-23T05:24:00.522Z,36.95
2023-04-23T05:26:27.426Z,36.76
2023-04-23T05:28:54.353Z,33.51
2023-04-23T05:31:21.423Z,33.22
2023-04-23T05:33:50.443Z,32.67
2023-04-23T05:36:18.262Z,32.13
2023-04-23T05:38:45.224Z,32.21
2023-04-23T05:41:12.113Z,31.53
2023-04-23T05:43:39.000Z,30.32
2023-04-23T05:46:07.681Z,31.71
2023-04-23T05:48:35.070Z,31.68
2023-04-23T05:51:02.097Z,35.48
2023-04-23T05:53:29.159Z,34.69
2023-04-23T05:55:56.206Z,33.40
2023-04-23T05:58:23.769Z,34.45
2023-04-23T06:00:50.677Z,33.55
2023-04-23T06:03:17.816Z,31.52
2023-04-23T06:05:44.912Z,31.59
2023-04-23T06:08:11.840Z,32.40
2023-04-23T06:10:38.757Z,32.23
2023-04-23T06:13:06.076Z,33.94
2023-04-23T06:15:33.007Z,34.06
2023-04-23T06:17:59.886Z,36.44
2023-04-23T06:20:26.780Z,37.13
2023-04-23T06:22:53.754Z,37.22
2023-04-23T06:25:20.681Z,36.08
2023-04-23T06:27:47.546Z,36.56
2023-04-23T06:30:14.500Z,38.52
2023-04-23T06:32:41.461Z,35.14
2023-04-23T06:35:08.888Z,33.59
2023-04-23T06:37:36.031Z,32.40
2023-04-23T06:40:02.937Z,32.81
2023-04-23T06:42:29.911Z,35.33
2023-04-23T06:44:59.635Z,37.73
2023-04-23T06:47:26.506Z,39.09
2023-04-23T06:49:53.355Z,36.92
2023-04-23T06:52:20.240Z,35.98
2023-04-23T06:54:47.137Z,36.42
2023-04-23T06:57:13.980Z,36.44
2023-04-23T06:59:40.888Z,33.00
2023-04-23T07:02:07.959Z,30.42
2023-04-23T07:04:34.961Z,26.26
2023-04-23T07:07:02.249Z,24.67
2023-04-23T07:09:29.114Z,25.34
2023-04-23T07:11:56.011Z,23.91
2023-04-23T07:14:23.075Z,23.60
2023-04-23T07:16:50.158Z,26.23
2023-04-23T07:19:17.127Z,24.74
2023-04-23T07:21:44.033Z,24.63
2023-04-23T07:24:11.433Z,24.33
2023-04-23T07:26:38.279Z,25.40
2023-04-23T07:29:10.805Z,24.50
2023-04-23T07:31:37.872Z,26.18
2023-04-23T07:34:04.845Z,26.24
2023-04-23T07:36:32.180Z,27.21
2023-04-23T07:38:59.148Z,24.57
2023-04-23T07:41:26.002Z,25.19
2023-04-23T07:43:52.929Z,24.34
2023-04-23T07:46:20.310Z,24.98
2023-04-23T07:48:47.199Z,24.64
2023-04-23T07:51:14.096Z,26.68
2023-04-23T07:53:41.375Z,26.30
2023-04-23T07:56:08.291Z,25.02
2023-04-23T07:58:35.647Z,25.38
2023-04-23T08:01:02.888Z,24.98
2023-04-23T08:03:30.016Z,25.62
2023-04-23T08:05:57.665Z,25.51
2023-04-23T08:08:24.537Z,25.54
2023-04-23T08:10:51.379Z,24.80
2023-04-23T08:13:18.279Z,25.96
2023-04-23T08:15:45.248Z,24.13
2023-04-23T08:18:13.281Z,24.99
2023-04-23T08:20:40.150Z,25.66
2023-04-23T08:23:07.318Z,25.71
2023-04-23T08:25:34.794Z,25.09
2023-04-23T08:28:01.817Z,24.65
2023-04-23T08:30:28.682Z,24.52
2023-04-23T08:32:55.718Z,24.50
2023-04-23T08:35:23.627Z,23.18
2023-04-23T08:37:50.655Z,25.67
2023-04-23T08:40:17.669Z,23.52
2023-04-23T08:42:49.728Z,23.66
2023-04-23T08:45:17.028Z,23.65
2023-04-23T08:47:44.488Z,24.70
2023-04-23T08:50:13.449Z,23.85
2023-04-23T08:52:51.304Z,23.19
2023-04-23T08:55:19.028Z,21.80
2023-04-23T08:57:46.808Z,23.01
2023-04-23T09:00:14.670Z,24.51
2023-04-23T09:02:43.924Z,25.72
2023-04-23T09:05:12.889Z,24.78
2023-04-23T09:07:40.405Z,23.75
2023-04-23T09:10:08.801Z,23.99
2023-04-23T09:12:36.795Z,22.95
2023-04-23T09:15:10.825Z,22.61
2023-04-23T09:17:44.047Z,22.89
2023-04-23T09:20:11.821Z,24.11
2023-04-23T09:22:52.855Z,24.70
2023-04-23T09:25:24.219Z,23.85
2023-04-23T09:27:52.358Z,24.13
2023-04-23T09:30:19.968Z,24.70
2023-04-23T09:32:47.675Z,23.90
2023-04-23T09:35:16.449Z,24.45
2023-04-23T09:37:48.789Z,24.68
2023-04-23T09:40:17.726Z,24.68
2023-04-23T09:42:49.806Z,25.02
2023-04-23T09:45:17.375Z,23.34
2023-04-23T09:47:58.108Z,24.58
2023-04-23T09:50:40.885Z,25.39
2023-04-23T09:53:09.647Z,23.03
2023-04-23T09:55:39.502Z,23.29
2023-04-23T09:58:11.376Z,23.99
2023-04-23T10:00:39.228Z,22.91
2023-04-23T10:03:13.027Z,24.13
2023-04-23T10:08:13.464Z,22.42
2023-04-23T10:10:55.084Z,23.49
2023-04-23T10:13:28.547Z,24.25
2023-04-23T10:16:04.488Z,25.17
2023-04-23T10:18:38.022Z,25.06
2023-04-23T10:21:05.755Z,23.58
2023-04-23T10:23:34.436Z,23.54
2023-04-23T10:26:01.861Z,22.52
2023-04-23T10:28:32.189Z,22.53
2023-04-23T10:31:00.274Z,23.18
2023-04-23T10:33:30.888Z,25.86
2023-04-23T10:36:02.485Z,23.54
2023-04-23T10:38:30.495Z,24.45
2023-04-23T10:40:59.076Z,25.23
2023-04-23T10:43:26.057Z,24.45
2023-04-23T10:45:53.993Z,23.52
2023-04-23T10:48:21.634Z,24.56
2023-04-23T10:51:09.879Z,22.92
2023-04-23T10:53:45.986Z,23.77
2023-04-23T10:56:12.937Z,25.51
2023-04-23T10:58:53.263Z,23.66
2023-04-23T11:01:22.246Z,24.56
2023-04-23T11:03:49.400Z,24.60
2023-04-23T11:06:42.027Z,24.86
2023-04-23T11:09:37.017Z,25.42
2023-04-23T11:12:11.043Z,25.25
2023-04-23T11:14:43.419Z,23.18
2023-04-23T11:17:14.360Z,23.57
2023-04-23T11:19:43.479Z,24.87
2023-04-23T11:24:48.261Z,23.45
2023-04-23T11:27:18.843Z,24.97
2023-04-23T11:29:54.738Z,25.16
2023-04-23T11:32:21.963Z,23.85
2023-04-23T11:34:50.651Z,24.50
2023-04-23T11:37:19.062Z,26.06
2023-04-23T11:39:47.719Z,24.41
2023-04-23T11:42:15.527Z,24.32
2023-04-23T11:44:45.571Z,24.19
2023-04-23T11:47:14.521Z,25.23
2023-04-23T11:49:43.288Z,23.78
2023-04-23T11:52:11.757Z,23.67
2023-04-23T11:54:41.537Z,23.60
2023-04-23T11:57:08.688Z,24.22
2023-04-23T11:59:35.711Z,24.32
2023-04-23T12:02:02.642Z,24.39
2023-04-23T12:04:31.531Z,23.67
2023-04-23T12:06:59.347Z,24.29
2023-04-23T12:09:29.607Z,25.65
2023-04-23T12:11:58.518Z,23.94
2023-04-23T12:14:30.291Z,25.43
2023-04-23T12:16:58.423Z,23.56
2023-04-23T12:19:31.012Z,24.26
2023-04-23T12:22:00.218Z,24.09
2023-04-23T12:24:29.000Z,24.82
2023-04-23T12:26:58.700Z,24.66
2023-04-23T12:29:26.244Z,25.95
2023-04-23T12:31:54.164Z,23.13
2023-04-23T12:34:21.744Z,23.59
2023-04-23T12:36:54.759Z,24.03
2023-04-23T12:39:35.548Z,24.96
2023-04-23T12:42:08.244Z,25.76
2023-04-23T12:44:36.847Z,24.48
2023-04-23T12:47:08.317Z,25.11
2023-04-23T12:49:36.823Z,24.92
2023-04-23T12:52:05.048Z,26.35
2023-04-23T12:54:33.529Z,25.35
2023-04-23T12:57:03.155Z,25.33
2023-04-23T12:59:31.075Z,24.40
2023-04-23T13:02:02.487Z,25.01
2023-04-23T13:04:31.653Z,25.61
2023-04-23T13:06:58.527Z,25.51
2023-04-23T13:09:27.085Z,26.54
2023-04-23T13:11:54.757Z,26.02
2023-04-23T13:14:21.831Z,25.50
2023-04-23T13:16:49.357Z,24.35
2023-04-23T13:19:18.376Z,24.62
2023-04-23T13:21:45.699Z,25.64
2023-04-23T13:24:12.619Z,26.97
2023-04-23T13:26:39.555Z,26.36
2023-04-23T13:29:06.778Z,25.06
2023-04-23T13:31:33.926Z,25.22
2023-04-23T13:34:03.059Z,26.06
2023-04-23T13:36:30.369Z,27.98
2023-04-23T13:38:57.345Z,26.85
2023-04-23T13:41:24.252Z,27.80
2023-04-23T13:43:51.417Z,25.00
2023-04-23T13:46:19.805Z,24.29
2023-04-23T13:48:48.878Z,25.28
2023-04-23T13:51:33.253Z,24.69
2023-04-23T13:54:00.778Z,26.11
2023-04-23T13:56:28.016Z,26.42
2023-04-23T13:58:59.864Z,27.83
2023-04-23T14:01:32.083Z,26.69
2023-04-23T14:03:59.038Z,27.10
2023-04-23T14:06:26.034Z,27.58
2023-04-23T14:08:52.900Z,25.84
2023-04-23T14:11:19.758Z,26.50
2023-04-23T14:13:46.658Z,25.98
2023-04-23T14:16:13.654Z,24.31
2023-04-23T14:18:40.635Z,25.40
2023-04-23T14:21:08.015Z,26.44
2023-04-23T14:23:43.745Z,25.64
2023-04-23T14:26:10.920Z,25.96
2023-04-23T14:28:45.045Z,26.46
2023-04-23T14:31:12.039Z,25.26
2023-04-23T14:33:38.971Z,26.49
2023-04-23T14:36:05.992Z,26.97
2023-04-23T14:38:32.855Z,27.21
2023-04-23T14:41:00.904Z,24.48
2023-04-23T14:43:27.796Z,27.51
2023-04-23T14:45:54.730Z,25.65
2023-04-23T14:48:21.618Z,26.48
2023-04-23T14:50:48.464Z,25.12
2023-04-23T14:53:15.357Z,25.94
2023-04-23T14:55:43.479Z,25.36
2023-04-23T14:58:10.402Z,26.23
2023-04-23T15:00:37.265Z,25.65
2023-04-23T15:03:11.064Z,27.16
2023-04-23T15:05:38.582Z,25.93
2023-04-23T15:08:05.598Z,26.29
2023-04-23T15:10:32.533Z,26.88
2023-04-23T15:13:09.707Z,26.03
2023-04-23T15:15:48.471Z,26.83
2023-04-23T15:18:15.835Z,25.80
2023-04-23T15:20:43.951Z,26.15
2023-04-23T15:23:11.401Z,27.09
2023-04-23T15:25:39.433Z,26.89
2023-04-23T15:28:07.214Z,27.35
2023-04-23T15:30:34.178Z,26.68
2023-04-23T15:33:01.250Z,26.48
2023-04-23T15:35:28.567Z,27.86
2023-04-23T15:37:55.496Z,27.49
2023-04-23T15:40:22.404Z,27.85
2023-04-23T15:42:50.188Z,27.87
2023-04-23T15:45:17.247Z,27.34
2023-04-23T15:47:44.238Z,26.94
2023-04-23T15:50:11.785Z,27.29
2023-04-23T15:52:39.461Z,27.46
2023-04-23T15:55:06.964Z,27.31
2023-04-23T15:57:33.856Z,28.57
2023-04-23T16:00:01.441Z,29.06
2023-04-23T16:02:29.149Z,29.35
2023-04-23T16:04:56.397Z,29.37
2023-04-23T16:07:23.360Z,28.80
2023-04-23T16:09:50.235Z,29.22
2023-04-23T16:12:17.106Z,28.37
2023-04-23T16:14:44.033Z,28.86
2023-04-23T16:17:10.958Z,28.47
2023-04-23T16:19:38.058Z,28.59
2023-04-23T16:22:04.958Z,28.83
2023-04-23T16:24:32.246Z,28.62
2023-04-23T16:26:59.188Z,29.19
2023-04-23T16:29:26.166Z,29.54
2023-04-23T16:31:53.063Z,28.99
2023-04-23T16:34:19.976Z,29.70
2023-04-23T16:36:46.852Z,29.03
2023-04-23T16:39:13.756Z,29.30
2023-04-23T16:41:40.664Z,29.36
2023-04-23T16:44:07.588Z,29.63
2023-04-23T16:46:34.582Z,29.79
2023-04-23T16:49:01.524Z,30.32
2023-04-23T16:51:29.914Z,30.14
2023-04-23T16:53:57.223Z,29.96
2023-04-23T16:56:24.359Z,29.96
2023-04-23T16:58:51.273Z,30.77
2023-04-23T17:01:18.501Z,30.58
2023-04-23T17:03:45.911Z,31.52
2023-04-23T17:06:23.887Z,30.92
2023-04-23T17:08:50.892Z,31.93
2023-04-23T17:11:17.761Z,31.68
2023-04-23T17:13:44.951Z,30.86
2023-04-23T17:16:12.131Z,31.47
2023-04-23T17:18:39.000Z,31.71
2023-04-23T17:21:06.015Z,31.84
2023-04-23T17:23:32.900Z,32.24
2023-04-23T17:25:59.756Z,32.88
2023-04-23T17:28:26.707Z,33.23
2023-04-23T17:30:55.938Z,32.82
2023-04-23T17:33:23.885Z,32.12
2023-04-23T17:35:58.027Z,33.25
2023-04-23T17:38:26.131Z,33.54
2023-04-23T17:40:53.643Z,33.10
2023-04-23T17:43:21.156Z,32.87
2023-04-23T17:45:48.792Z,33.08
2023-04-23T17:48:15.956Z,33.25
2023-04-23T17:50:43.470Z,33.51
2023-04-23T17:53:10.654Z,33.95
2023-04-23T17:55:37.572Z,33.35
2023-04-23T17:58:07.624Z,34.34
2023-04-23T18:00:38.864Z,33.56
2023-04-23T18:03:07.459Z,34.10
2023-04-23T18:05:34.486Z,33.54
2023-04-23T18:08:02.122Z,35.08
2023-04-23T18:10:29.627Z,33.42
2023-04-23T18:12:56.732Z,33.02
2023-04-23T18:15:25.878Z,33.22
2023-04-23T18:17:55.895Z,34.20
2023-04-23T18:20:25.128Z,34.99
2023-04-23T18:22:54.468Z,34.54
2023-04-23T18:25:21.667Z,34.82
2023-04-23T18:27:48.878Z,34.97
2023-04-23T18:30:15.917Z,35.26
2023-04-23T18:32:47.182Z,34.30
2023-04-23T18:35:14.637Z,35.61
2023-04-23T18:37:49.587Z,35.25
2023-04-23T18:40:16.431Z,34.91
2023-04-23T18:42:43.294Z,35.25
2023-04-23T18:45:10.872Z,34.51
2023-04-23T18:47:45.524Z,34.50
2023-04-23T18:50:54.855Z,34.46
2023-04-23T18:53:22.265Z,34.88
2023-04-23T18:55:49.202Z,34.67
2023-04-23T18:58:18.177Z,35.52
2023-04-23T19:00:45.040Z,35.33
2023-04-23T19:03:23.481Z,35.66
2023-04-23T19:05:53.490Z,36.20
2023-04-23T19:08:20.490Z,35.56
2023-04-23T19:10:47.452Z,35.22
2023-04-23T19:13:14.360Z,35.66
2023-04-23T19:15:41.632Z,35.26
2023-04-23T19:18:08.553Z,35.51
2023-04-23T19:20:36.183Z,35.41
2023-04-23T19:23:05.183Z,36.07
2023-04-23T19:25:32.285Z,36.43
2023-04-23T19:27:59.122Z,37.19
2023-04-23T19:30:25.994Z,38.01
2023-04-23T19:32:53.080Z,37.09
2023-04-23T19:35:20.400Z,37.39
2023-04-23T19:37:47.445Z,36.36
2023-04-23T19:40:14.835Z,37.07
2023-04-23T19:42:41.693Z,36.01
2023-04-23T19:45:09.047Z,37.88
2023-04-23T19:47:38.926Z,37.59
2023-04-23T19:50:10.094Z,36.97
2023-04-23T19:52:37.199Z,37.93
2023-04-23T19:55:04.328Z,37.96
2023-04-23T19:57:31.247Z,36.91
2023-04-23T19:59:58.113Z,36.81
2023-04-23T20:02:25.122Z,36.24
2023-04-23T20:04:51.961Z,36.09
2023-04-23T20:07:18.823Z,36.44
2023-04-23T20:09:45.829Z,36.28
2023-04-23T20:12:14.114Z,37.28
2023-04-23T20:14:41.043Z,35.54
2023-04-23T20:17:08.219Z,37.08
2023-04-23T20:19:35.086Z,36.27
2023-04-23T20:22:02.679Z,35.94
2023-04-23T20:24:29.536Z,36.14
2023-04-23T20:26:56.792Z,35.49
2023-04-23T20:29:23.651Z,36.73
2023-04-23T20:31:50.508Z,34.99
2023-04-23T20:34:17.608Z,34.98
2023-04-23T20:36:47.250Z,35.80
2023-04-23T20:39:14.397Z,35.32
2023-04-23T20:41:41.379Z,36.46
2023-04-23T20:44:09.227Z,36.86
2023-04-23T20:46:37.065Z,35.85
2023-04-23T20:49:04.468Z,35.15
2023-04-23T20:51:34.257Z,35.77
2023-04-23T20:54:01.906Z,36.44
2023-04-23T20:56:29.465Z,36.22
2023-04-23T20:58:57.790Z,35.33
2023-04-23T21:01:25.151Z,36.77
2023-04-23T21:03:53.693Z,37.39
2023-04-23T21:06:21.681Z,36.67
2023-04-23T21:08:48.626Z,36.80
2023-04-23T21:11:18.587Z,37.03
2023-04-23T21:13:48.532Z,36.79
2023-04-23T21:16:15.500Z,36.57
2023-04-23T21:18:43.936Z,37.51
2023-04-23T21:21:11.210Z,36.96
2023-04-23T21:23:38.084Z,38.13
2023-04-23T21:26:05.149Z,37.91
2023-04-23T21:28:32.373Z,36.55
2023-04-23T21:31:07.772Z,37.05
2023-04-23T21:33:34.670Z,37.90
2023-04-23T21:36:01.646Z,37.65
2023-04-23T21:38:28.559Z,37.64
2023-04-23T21:40:55.408Z,36.26
2023-04-23T21:43:22.307Z,36.17
2023-04-23T21:45:49.163Z,36.21
2023-04-23T21:48:16.169Z,36.61
2023-04-23T21:50:43.172Z,36.10
2023-04-23T21:53:10.139Z,36.69
2023-04-23T21:55:36.977Z,35.52
2023-04-23T21:58:16.545Z,36.07
2023-04-23T22:00:44.927Z,36.85
2023-04-23T22:03:15.425Z,36.37
2023-04-23T22:05:57.862Z,37.51
2023-04-23T22:08:25.196Z,37.63
2023-04-23T22:10:52.086Z,36.75
2023-04-23T22:13:20.337Z,35.93
2023-04-23T22:15:51.204Z,36.96
2023-04-23T22:18:18.122Z,35.17
2023-04-23T22:20:48.459Z,35.61
2023-04-23T22:23:15.681Z,36.51
2023-04-23T22:25:42.978Z,36.09
2023-04-23T22:28:09.833Z,36.47
2023-04-23T22:30:37.067Z,36.58
2023-04-23T22:33:04.530Z,35.14
2023-04-23T22:35:32.075Z,35.43
2023-04-23T22:37:58.970Z,36.35
2023-04-23T22:40:25.995Z,36.38
2023-04-23T22:42:52.908Z,36.41
2023-04-23T22:45:19.789Z,37.75
2023-04-23T22:47:46.873Z,37.40
2023-04-23T22:50:13.826Z,39.49
2023-04-23T22:52:41.589Z,40.29
2023-04-23T22:55:08.882Z,40.68
2023-04-23T22:57:36.093Z,40.86
2023-04-23T23:00:05.196Z,41.44
2023-04-23T23:02:32.126Z,41.22
2023-04-23T23:04:59.125Z,41.36
2023-04-23T23:07:26.070Z,42.70
2023-04-23T23:09:52.975Z,42.08
2023-04-23T23:12:19.826Z,43.14
2023-04-23T23:14:46.692Z,42.21
2023-04-23T23:17:13.560Z,42.46
2023-04-23T23:19:40.705Z,44.14
2023-04-23T23:22:07.738Z,43.41
2023-04-23T23:24:34.934Z,43.93
2023-04-23T23:27:02.721Z,44.25
2023-04-23T23:29:29.575Z,44.41
2023-04-23T23:31:57.682Z,45.10
2023-04-23T23:34:24.549Z,47.32
2023-04-23T23:36:51.997Z,46.93
2023-04-23T23:39:20.235Z,46.98
2023-04-23T23:41:47.461Z,47.31
2023-04-23T23:44:14.501Z,45.40
2023-04-23T23:46:41.757Z,45.84
2023-04-23T23:49:08.675Z,46.02
2023-04-23T23:51:35.623Z,47.43
2023-04-23T23:54:02.624Z,46.08
2023-04-23T23:56:29.559Z,45.36
2023-04-23T23:58:56.392Z,45.52
